createdAt,value
2023-05-16T00:03:57.994Z,82.97
2023-05-16T00:09:44.817Z,82.92
2023-05-16T00:15:07.763Z,83.41
2023-05-16T00:20:53.535Z,83.18
2023-05-16T00:26:16.310Z,83.54
2023-05-16T00:31:37.948Z,83.36
2023-05-16T00:37:02.532Z,83.82
2023-05-16T00:42:26.779Z,83.44
2023-05-16T00:47:57.998Z,83.68
2023-05-16T00:53:27.547Z,83.74
2023-05-16T00:58:50.351Z,83.79
2023-05-16T01:04:00.761Z,83.62
2023-05-16T01:09:20.664Z,83.54
2023-05-16T01:15:09.975Z,83.58
2023-05-16T01:21:21.256Z,83.85
2023-05-16T01:27:01.335Z,84.04
2023-05-16T01:32:17.462Z,84.29
2023-05-16T01:37:38.664Z,84.04
2023-05-16T01:42:54.847Z,84.31
2023-05-16T01:48:21.472Z,84.39
2023-05-16T01:53:38.999Z,84.59
2023-05-16T01:58:59.446Z,84.80
2023-05-16T02:04:16.401Z,85.11
2023-05-16T02:09:36.387Z,84.84
2023-05-16T02:14:56.189Z,85.04
2023-05-16T02:20:07.422Z,84.89
2023-05-16T02:25:12.319Z,85.14
2023-05-16T02:31:10.472Z,84.97
2023-05-16T02:36:47.606Z,85.24
2023-05-16T02:42:11.776Z,85.24
2023-05-16T02:47:50.959Z,85.00
2023-05-16T02:53:29.020Z,85.51
2023-05-16T02:58:43.151Z,85.71
2023-05-16T03:04:12.840Z,85.82
2023-05-16T03:09:34.904Z,85.67
2023-05-16T03:14:51.964Z,85.94
2023-05-16T03:20:29.965Z,86.04
2023-05-16T03:26:02.944Z,86.27
2023-05-16T03:31:56.997Z,86.00
2023-05-16T03:37:17.458Z,86.14
2023-05-16T03:43:13.831Z,85.59
2023-05-16T03:48:35.437Z,85.56
2023-05-16T03:53:54.068Z,85.73
2023-05-16T03:59:22.826Z,85.70
2023-05-16T04:04:33.094Z,85.46
2023-05-16T04:10:06.799Z,85.88
2023-05-16T04:15:17.726Z,85.17
2023-05-16T04:20:35.495Z,85.12
2023-05-16T04:26:00.123Z,84.79
2023-05-16T04:31:28.586Z,84.68
2023-05-16T04:36:41.778Z,84.50
2023-05-16T04:42:26.998Z,84.76
2023-05-16T04:48:01.468Z,84.53
2023-05-16T04:53:11.635Z,84.69
2023-05-16T04:58:27.692Z,84.57
2023-05-16T05:04:35.729Z,84.55
2023-05-16T05:10:23.906Z,84.21
2023-05-16T05:15:29.564Z,83.76
2023-05-16T05:20:52.882Z,83.61
2023-05-16T05:26:12.367Z,83.21
2023-05-16T05:31:53.889Z,83.00
2023-05-16T05:37:29.222Z,82.46
2023-05-16T05:43:19.515Z,81.97
2023-05-16T05:49:03.479Z,81.50
2023-05-16T05:54:36.675Z,80.91
2023-05-16T05:59:44.714Z,80.92
2023-05-16T06:04:49.552Z,80.21
2023-05-16T06:10:15.644Z,79.77
2023-05-16T06:15:47.210Z,79.37
2023-05-16T06:21:11.034Z,78.57
2023-05-16T06:26:31.024Z,77.86
2023-05-16T06:31:43.321Z,77.50
2023-05-16T06:37:11.906Z,77.11
2023-05-16T06:42:24.743Z,76.62
2023-05-16T06:47:35.023Z,76.17
2023-05-16T06:53:05.851Z,75.87
2023-05-16T06:58:17.600Z,75.45
2023-05-16T07:03:40.097Z,74.81
2023-05-16T07:09:10.907Z,74.11
2023-05-16T07:14:37.822Z,74.04
2023-05-16T07:19:47.760Z,73.31
2023-05-16T07:25:01.519Z,73.21
2023-05-16T07:30:06.525Z,73.10
2023-05-16T07:35:13.180Z,72.41
2023-05-16T07:40:20.996Z,71.64
2023-05-16T07:45:40.289Z,70.75
2023-05-16T07:50:44.225Z,70.73
2023-05-16T07:55:46.528Z,70.89
2023-05-16T08:00:57.750Z,70.85
2023-05-16T08:06:16.853Z,70.21
2023-05-16T08:11:39.896Z,69.68
2023-05-16T08:16:54.197Z,67.67
2023-05-16T08:22:02.193Z,67.46
2023-05-16T08:27:07.559Z,66.93
2023-05-16T08:32:11.370Z,66.96
2023-05-16T08:37:17.457Z,66.54
2023-05-16T08:42:25.804Z,66.37
2023-05-16T08:47:51.043Z,66.05
2023-05-16T08:53:06.356Z,65.71
2023-05-16T08:58:11.478Z,64.89
2023-05-16T09:03:14.335Z,64.95
2023-05-16T09:08:20.312Z,64.35
2023-05-16T09:13:26.273Z,63.61
2023-05-16T09:18:31.497Z,62.56
2023-05-16T09:23:40.496Z,62.23
2023-05-16T09:28:57.385Z,61.99
2023-05-16T09:34:13.107Z,61.20
2023-05-16T09:39:27.576Z,60.96
2023-05-16T09:44:35.860Z,60.90
2023-05-16T09:49:38.289Z,61.22
2023-05-16T09:54:52.803Z,60.13
2023-05-16T10:00:02.085Z,59.60
2023-05-16T10:05:10.603Z,58.51
2023-05-16T10:10:14.051Z,58.24
2023-05-16T10:15:22.131Z,58.39
2023-05-16T10:20:26.483Z,57.55
2023-05-16T10:25:54.809Z,55.69
2023-05-16T10:30:57.972Z,55.05
2023-05-16T10:36:09.926Z,54.83
2023-05-16T10:41:13.501Z,54.37
2023-05-16T10:46:35.946Z,53.84
2023-05-16T10:51:41.276Z,53.04
2023-05-16T10:56:43.610Z,52.66
2023-05-16T11:01:53.177Z,52.74
2023-05-16T11:06:59.063Z,52.25
2023-05-16T11:12:09.942Z,52.08
2023-05-16T11:17:25.160Z,52.49
2023-05-16T11:22:33.610Z,52.78
2023-05-16T11:27:57.663Z,52.83
2023-05-16T11:33:03.155Z,53.06
2023-05-16T11:38:05.556Z,53.49
2023-05-16T11:43:08.559Z,53.68
2023-05-16T11:48:14.450Z,54.00
2023-05-16T11:53:22.524Z,53.82
2023-05-16T11:58:24.672Z,53.07
2023-05-16T12:03:36.820Z,53.68
2023-05-16T12:08:51.013Z,53.79
2023-05-16T12:14:19.325Z,54.21
2023-05-16T12:19:32.625Z,53.83
2023-05-16T12:24:35.086Z,53.41
2023-05-16T12:29:37.249Z,53.56
2023-05-16T12:34:51.072Z,53.23
2023-05-16T12:40:07.971Z,53.65
2023-05-16T12:45:17.353Z,53.76
2023-05-16T12:50:23.070Z,53.37
2023-05-16T12:55:31.024Z,53.64
2023-05-16T13:00:50.178Z,53.20
2023-05-16T13:06:09.789Z,53.58
2023-05-16T13:11:19.882Z,53.66
2023-05-16T13:16:22.395Z,53.37
2023-05-16T13:21:30.329Z,53.57
2023-05-16T13:26:43.236Z,53.60
2023-05-16T13:31:52.456Z,54.04
2023-05-16T13:37:01.390Z,54.57
2023-05-16T13:42:12.603Z,54.92
2023-05-16T13:47:26.224Z,55.09
2023-05-16T13:52:28.377Z,55.02
2023-05-16T13:57:31.721Z,55.28
2023-05-16T14:02:43.320Z,56.33
2023-05-16T14:07:52.907Z,57.84
2023-05-16T14:12:54.921Z,58.99
2023-05-16T14:18:07.660Z,60.26
2023-05-16T14:23:12.886Z,61.02
2023-05-16T14:28:15.560Z,62.34
2023-05-16T14:33:23.374Z,63.42
2023-05-16T14:38:31.350Z,64.87
2023-05-16T14:43:39.088Z,65.99
2023-05-16T14:48:44.534Z,66.85
2023-05-16T14:53:49.658Z,67.52
2023-05-16T14:58:57.208Z,69.03
2023-05-16T15:04:04.726Z,70.09
2023-05-16T15:09:07.123Z,70.88
2023-05-16T15:14:09.138Z,71.61
2023-05-16T15:19:14.730Z,72.31
2023-05-16T15:24:26.032Z,73.12
2023-05-16T15:29:37.480Z,73.92
2023-05-16T15:34:52.971Z,74.76
2023-05-16T15:39:56.068Z,75.62
2023-05-16T15:45:06.050Z,76.30
2023-05-16T15:50:17.780Z,76.75
2023-05-16T15:55:37.741Z,77.41
2023-05-16T16:00:48.728Z,77.63
2023-05-16T16:05:52.747Z,78.07
2023-05-16T16:10:58.529Z,78.35
2023-05-16T16:16:04.698Z,78.73
2023-05-16T16:21:08.454Z,79.12
2023-05-16T16:26:17.605Z,79.25
2023-05-16T16:31:23.117Z,79.60
2023-05-16T16:36:38.032Z,79.93
2023-05-16T16:42:25.292Z,80.15
2023-05-16T16:47:35.868Z,80.77
2023-05-16T16:52:47.875Z,80.77
2023-05-16T16:58:02.349Z,81.11
2023-05-16T17:03:22.181Z,81.37
2023-05-16T17:08:33.277Z,81.46
2023-05-16T17:13:59.818Z,81.73
2023-05-16T17:19:22.026Z,81.87
2023-05-16T17:24:33.964Z,81.96
2023-05-16T17:29:39.402Z,82.28
2023-05-16T17:34:53.961Z,82.43
2023-05-16T17:39:59.126Z,82.46
2023-05-16T17:45:04.400Z,82.49
2023-05-16T17:50:09.880Z,82.74
2023-05-16T17:55:15.266Z,82.79
2023-05-16T18:00:21.814Z,82.94
2023-05-16T18:05:24.976Z,82.98
2023-05-16T18:10:43.439Z,83.25
2023-05-16T18:15:55.521Z,83.58
2023-05-16T18:21:06.876Z,83.62
2023-05-16T18:26:16.270Z,83.79
2023-05-16T18:31:24.549Z,83.94
2023-05-16T18:36:30.639Z,84.16
2023-05-16T18:41:45.925Z,84.34
2023-05-16T18:46:57.481Z,84.44
2023-05-16T18:52:10.649Z,84.77
2023-05-16T18:57:34.329Z,84.76
2023-05-16T19:02:42.701Z,84.92
2023-05-16T19:07:45.457Z,85.16
2023-05-16T19:13:12.519Z,85.26
2023-05-16T19:18:35.422Z,85.31
2023-05-16T19:23:37.745Z,85.58
2023-05-16T19:28:43.386Z,85.76
2023-05-16T19:33:46.390Z,85.84
2023-05-16T19:38:57.640Z,85.90
2023-05-16T19:43:59.720Z,85.86
2023-05-16T19:49:14.835Z,86.09
2023-05-16T19:54:17.621Z,86.25
2023-05-16T19:59:20.629Z,86.48
2023-05-16T20:04:22.880Z,86.65
2023-05-16T20:09:25.138Z,86.78
2023-05-16T20:14:29.153Z,86.92
2023-05-16T20:19:31.779Z,87.19
2023-05-16T20:24:40.054Z,87.44
2023-05-16T20:29:42.801Z,87.78
2023-05-16T20:34:45.607Z,87.69
2023-05-16T20:39:49.951Z,87.82
2023-05-16T20:44:52.269Z,87.94
2023-05-16T20:49:54.797Z,87.98
2023-05-16T20:55:00.347Z,87.91
2023-05-16T21:00:03.582Z,88.02
2023-05-16T21:05:20.186Z,88.17
2023-05-16T21:10:27.817Z,88.16
2023-05-16T21:15:38.486Z,88.45
2023-05-16T21:20:47.019Z,88.57
2023-05-16T21:25:49.333Z,88.79
2023-05-16T21:30:52.622Z,88.96
2023-05-16T21:36:06.645Z,89.04
2023-05-16T21:41:10.728Z,88.99
2023-05-16T21:46:13.345Z,89.19
2023-05-16T21:51:22.479Z,89.33
2023-05-16T21:56:38.214Z,89.26
2023-05-16T22:01:45.270Z,89.40
2023-05-16T22:06:49.841Z,89.35
2023-05-16T22:11:52.898Z,89.51
2023-05-16T22:17:01.949Z,89.50
2023-05-16T22:22:10.246Z,89.55
2023-05-16T22:27:12.640Z,89.45
2023-05-16T22:32:17.749Z,89.68
2023-05-16T22:37:19.853Z,89.47
2023-05-16T22:42:21.908Z,89.62
2023-05-16T22:47:24.204Z,89.67
2023-05-16T22:52:32.038Z,89.55
2023-05-16T22:57:36.812Z,89.60
2023-05-16T23:02:39.800Z,89.71
2023-05-16T23:07:44.330Z,89.51
2023-05-16T23:13:11.802Z,89.63
2023-05-16T23:18:28.226Z,89.62
2023-05-16T23:23:30.511Z,89.91
2023-05-16T23:28:33.132Z,89.90
2023-05-16T23:33:35.334Z,89.94
2023-05-16T23:38:38.486Z,89.90
2023-05-16T23:43:43.547Z,89.85
2023-05-16T23:48:57.205Z,89.90
2023-05-16T23:54:04.933Z,89.80
2023-05-16T23:59:10.605Z,89.95
